createdAt,value
2019-02-21T00:00:02.537Z,97.20
2019-02-21T00:02:32.645Z,97.10
2019-02-21T00:05:02.291Z,97.10
2019-02-21T00:07:33.340Z,97.10
2019-02-21T00:10:02.960Z,97.30
2019-02-21T00:12:32.582Z,97.20
2019-02-21T00:15:02.254Z,97.20
2019-02-21T00:17:31.914Z,97.20
2019-02-21T00:20:01.542Z,97.10
2019-02-21T00:22:31.285Z,97.10
2019-02-21T00:25:01.019Z,97.10
2019-02-21T00:27:30.627Z,97.20
2019-02-21T00:30:00.383Z,97.20
2019-02-21T00:32:30.175Z,97.20
2019-02-21T00:34:59.834Z,97.10
2019-02-21T00:37:30.420Z,97.00
2019-02-21T00:40:00.063Z,97.00
2019-02-21T00:42:29.691Z,97.00
2019-02-21T00:44:59.264Z,97.00
2019-02-21T00:47:28.951Z,97.10
2019-02-21T00:49:58.629Z,97.20
2019-02-21T00:52:28.247Z,97.20
2019-02-21T00:54:57.918Z,97.10
2019-02-21T00:57:27.604Z,97.10
2019-02-21T00:59:57.255Z,97.10
2019-02-21T01:02:26.913Z,97.10
2019-02-21T01:04:56.646Z,97.40
2019-02-21T01:07:26.345Z,97.40
2019-02-21T01:09:56.145Z,97.40
2019-02-21T01:12:26.984Z,97.40
2019-02-21T01:14:56.646Z,97.30
2019-02-21T01:17:26.349Z,97.40
2019-02-21T01:19:57.055Z,97.40
2019-02-21T01:22:26.699Z,97.60
2019-02-21T01:24:56.353Z,97.60
2019-02-21T01:27:25.972Z,97.40
2019-02-21T01:29:55.651Z,97.30
2019-02-21T01:32:25.279Z,97.30
2019-02-21T01:34:54.839Z,97.40
2019-02-21T01:37:24.489Z,97.50
2019-02-21T01:39:54.134Z,97.40
2019-02-21T01:42:24.292Z,97.50
2019-02-21T01:44:53.937Z,97.20
2019-02-21T01:47:23.648Z,97.30
2019-02-21T01:49:53.345Z,97.30
2019-02-21T01:52:24.082Z,97.40
2019-02-21T01:54:53.785Z,97.30
2019-02-21T01:57:23.356Z,97.20
2019-02-21T01:59:52.983Z,97.20
2019-02-21T02:02:22.629Z,97.20
2019-02-21T02:04:52.244Z,97.10
2019-02-21T02:07:21.869Z,97.10
2019-02-21T02:09:51.521Z,97.10
2019-02-21T02:12:21.222Z,97.20
2019-02-21T02:14:50.819Z,97.40
2019-02-21T02:17:20.527Z,97.40
2019-02-21T02:19:50.210Z,97.50
2019-02-21T02:22:19.860Z,97.60
2019-02-21T02:24:49.555Z,97.40
2019-02-21T02:27:19.212Z,97.20
2019-02-21T02:29:48.833Z,97.10
2019-02-21T02:32:21.080Z,97.10
2019-02-21T02:34:50.764Z,97.00
2019-02-21T02:37:20.402Z,97.00
2019-02-21T02:39:50.117Z,96.90
2019-02-21T02:42:19.753Z,97.00
2019-02-21T02:44:49.371Z,96.90
2019-02-21T02:47:19.052Z,97.00
2019-02-21T02:49:48.657Z,97.00
2019-02-21T02:52:18.376Z,97.00
2019-02-21T02:54:48.118Z,97.10
2019-02-21T02:57:17.855Z,97.10
2019-02-21T02:59:47.471Z,97.00
2019-02-21T03:02:17.202Z,97.00
2019-02-21T03:04:46.969Z,97.00
2019-02-21T03:07:16.654Z,97.10
2019-02-21T03:09:47.290Z,97.10
2019-02-21T03:12:16.894Z,97.10
2019-02-21T03:14:47.755Z,97.00
2019-02-21T03:17:17.478Z,97.10
2019-02-21T03:19:47.979Z,97.00
2019-02-21T03:22:19.601Z,97.10
2019-02-21T03:24:49.247Z,97.10
2019-02-21T03:27:18.834Z,97.10
2019-02-21T03:29:48.470Z,97.00
2019-02-21T03:32:18.092Z,97.10
2019-02-21T03:34:47.780Z,97.00
2019-02-21T03:37:19.009Z,97.10
2019-02-21T03:39:48.702Z,97.10
2019-02-21T03:42:18.288Z,97.30
2019-02-21T03:44:49.814Z,97.20
2019-02-21T03:47:21.664Z,97.20
2019-02-21T03:49:51.252Z,97.30
2019-02-21T03:52:20.834Z,97.50
2019-02-21T03:54:50.802Z,97.60
2019-02-21T03:57:20.408Z,97.80
2019-02-21T03:59:49.994Z,97.80
2019-02-21T04:02:21.867Z,97.80
2019-02-21T04:04:51.412Z,97.80
2019-02-21T04:07:22.001Z,97.80
2019-02-21T04:09:52.420Z,97.80
2019-02-21T04:12:22.049Z,97.80
2019-02-21T04:14:52.634Z,97.90
2019-02-21T04:17:23.121Z,98.10
2019-02-21T04:19:52.759Z,98.10
2019-02-21T04:22:22.366Z,98.10
2019-02-21T04:24:52.029Z,98.20
2019-02-21T04:27:23.907Z,98.10
2019-02-21T04:29:53.547Z,98.00
2019-02-21T04:32:23.210Z,97.90
2019-02-21T04:34:52.861Z,97.90
2019-02-21T04:37:22.441Z,97.90
2019-02-21T04:39:52.028Z,97.70
2019-02-21T04:42:21.594Z,97.80
2019-02-21T04:44:51.251Z,97.80
2019-02-21T04:47:20.885Z,97.70
2019-02-21T04:49:50.652Z,97.80
2019-02-21T04:52:20.281Z,97.80
2019-02-21T04:54:49.787Z,97.60
2019-02-21T04:57:19.393Z,97.60
2019-02-21T04:59:49.106Z,97.60
2019-02-21T05:02:28.410Z,97.70
2019-02-21T05:04:50.103Z,97.80
2019-02-21T05:07:19.785Z,97.80
2019-02-21T05:09:57.612Z,97.80
2019-02-21T05:12:20.621Z,97.90
2019-02-21T05:14:50.241Z,98.00
2019-02-21T05:17:23.405Z,98.00
2019-02-21T05:19:52.985Z,98.10
2019-02-21T05:22:23.228Z,98.30
2019-02-21T05:24:52.874Z,98.30
2019-02-21T05:27:26.390Z,98.30
2019-02-21T05:29:56.378Z,98.40
2019-02-21T05:32:43.417Z,98.50
2019-02-21T05:35:41.285Z,98.60
2019-02-21T05:38:28.446Z,98.70
2019-02-21T05:41:14.526Z,98.80
2019-02-21T05:44:11.944Z,98.90
2019-02-21T05:46:54.999Z,98.90
2019-02-21T05:49:38.172Z,98.90
2019-02-21T05:52:21.564Z,99.00
2019-02-21T05:54:56.278Z,99.00
2019-02-21T05:57:34.792Z,99.10
2019-02-21T06:00:41.808Z,99.10
2019-02-21T06:03:36.383Z,99.10
2019-02-21T06:06:27.886Z,99.10
2019-02-21T06:09:04.942Z,99.00
2019-02-21T06:11:53.459Z,98.90
2019-02-21T06:14:29.701Z,98.90
2019-02-21T06:17:06.245Z,98.80
2019-02-21T06:19:57.614Z,98.80
2019-02-21T06:23:04.326Z,98.80
2019-02-21T06:32:16.205Z,98.70
2019-02-21T06:34:45.818Z,98.50
2019-02-21T06:37:15.443Z,98.40
2019-02-21T06:39:45.051Z,98.20
2019-02-21T06:42:14.661Z,98.10
2019-02-21T06:44:44.197Z,97.90
2019-02-21T06:47:13.773Z,97.80
2019-02-21T06:49:43.329Z,97.80
2019-02-21T06:52:15.318Z,97.70
2019-02-21T06:54:44.154Z,97.70
2019-02-21T06:57:13.786Z,97.50
2019-02-21T06:59:45.363Z,97.50
2019-02-21T07:02:14.652Z,97.50
2019-02-21T07:04:44.241Z,97.30
2019-02-21T07:07:13.901Z,97.10
2019-02-21T07:09:43.525Z,96.90
2019-02-21T07:12:13.128Z,96.60
2019-02-21T07:14:42.749Z,96.50
2019-02-21T07:17:12.402Z,96.30
2019-02-21T07:19:41.978Z,96.00
2019-02-21T07:22:17.705Z,96.00
2019-02-21T07:24:46.534Z,96.00
2019-02-21T07:27:16.191Z,95.90
2019-02-21T07:29:45.797Z,95.90
2019-02-21T07:32:15.464Z,95.80
2019-02-21T07:34:45.067Z,95.70
2019-02-21T07:37:18.576Z,95.60
2019-02-21T07:39:45.918Z,95.40
2019-02-21T07:42:15.493Z,95.30
2019-02-21T07:44:45.433Z,95.30
2019-02-21T07:47:15.173Z,95.40
2019-02-21T07:49:44.730Z,95.30
2019-02-21T07:52:14.329Z,95.20
2019-02-21T07:54:43.913Z,95.20
2019-02-21T07:57:13.501Z,95.30
2019-02-21T07:59:43.230Z,95.30
2019-02-21T08:02:15.843Z,95.40
2019-02-21T08:04:45.414Z,95.50
2019-02-21T08:07:14.979Z,95.50
2019-02-21T08:09:44.636Z,95.40
2019-02-21T08:12:14.380Z,95.40
2019-02-21T08:14:44.075Z,95.40
2019-02-21T08:17:16.196Z,95.00
2019-02-21T08:19:44.857Z,95.30
2019-02-21T08:22:14.453Z,94.90
2019-02-21T08:24:44.149Z,95.20
2019-02-21T08:27:13.684Z,94.80
2019-02-21T08:29:43.226Z,95.10
2019-02-21T08:32:14.401Z,95.10
2019-02-21T08:34:48.258Z,95.00
2019-02-21T08:37:17.988Z,94.90
2019-02-21T08:39:47.570Z,95.00
2019-02-21T08:42:17.282Z,95.10
2019-02-21T08:44:46.939Z,95.00
2019-02-21T08:47:16.536Z,94.60
2019-02-21T08:49:46.172Z,95.00
2019-02-21T08:52:15.784Z,94.80
2019-02-21T08:54:45.356Z,94.70
2019-02-21T08:57:14.950Z,94.60
2019-02-21T08:59:44.605Z,94.40
2019-02-21T09:02:14.264Z,94.50
2019-02-21T09:04:43.847Z,94.50
2019-02-21T09:07:13.524Z,94.50
2019-02-21T09:09:43.165Z,94.20
2019-02-21T09:12:12.767Z,93.80
2019-02-21T09:14:42.377Z,94.00
2019-02-21T09:17:11.993Z,94.30
2019-02-21T09:19:41.570Z,94.10
2019-02-21T09:22:11.213Z,94.40
2019-02-21T09:24:42.534Z,93.70
2019-02-21T09:27:12.231Z,94.10
2019-02-21T09:29:41.857Z,93.90
2019-02-21T09:32:11.449Z,93.60
2019-02-21T09:34:41.085Z,93.60
2019-02-21T09:37:10.782Z,93.40
2019-02-21T09:39:40.361Z,93.60
2019-02-21T09:42:12.727Z,93.70
2019-02-21T09:44:42.377Z,94.10
2019-02-21T09:47:12.021Z,94.40
2019-02-21T09:49:41.662Z,94.00
2019-02-21T09:52:11.281Z,93.90
2019-02-21T09:54:40.904Z,94.20
2019-02-21T09:57:13.468Z,94.60
2019-02-21T09:59:41.773Z,95.30
2019-02-21T10:02:11.410Z,96.00
2019-02-21T10:04:41.139Z,96.20
2019-02-21T10:07:10.793Z,96.00
2019-02-21T10:09:40.409Z,96.20
2019-02-21T10:12:10.024Z,95.60
2019-02-21T10:14:39.951Z,95.90
2019-02-21T10:17:09.518Z,96.10
2019-02-21T10:19:39.066Z,96.50
2019-02-21T10:22:08.778Z,96.40
2019-02-21T10:24:38.385Z,96.60
2019-02-21T10:27:07.987Z,96.70
2019-02-21T10:29:37.572Z,97.20
2019-02-21T10:32:07.176Z,97.60
2019-02-21T10:34:42.984Z,97.70
2019-02-21T10:37:07.994Z,97.90
2019-02-21T10:39:37.623Z,98.70
2019-02-21T10:42:07.211Z,98.50
2019-02-21T10:44:36.841Z,98.70
2019-02-21T10:47:06.382Z,99.30
2019-02-21T10:49:36.041Z,99.60
2019-02-21T10:52:05.664Z,99.70
2019-02-21T10:54:35.285Z,98.90
2019-02-21T10:57:04.922Z,99.10
2019-02-21T10:59:45.912Z,98.70
2019-02-21T11:02:05.962Z,98.40
2019-02-21T11:04:35.522Z,98.00
2019-02-21T11:07:05.282Z,97.90
2019-02-21T11:09:34.906Z,98.10
2019-02-21T11:12:04.749Z,98.40
2019-02-21T11:14:34.289Z,97.90
2019-02-21T11:17:03.807Z,97.10
2019-02-21T11:19:33.473Z,97.60
2019-02-21T11:22:03.175Z,97.80
2019-02-21T11:24:32.874Z,98.10
2019-02-21T11:27:02.464Z,98.00
2019-02-21T11:29:32.070Z,98.80
2019-02-21T11:32:01.734Z,98.90
2019-02-21T11:34:31.335Z,98.60
2019-02-21T11:37:01.924Z,98.80
2019-02-21T11:39:31.509Z,98.50
2019-02-21T11:42:01.060Z,98.60
2019-02-21T11:44:30.621Z,98.60
2019-02-21T11:47:00.289Z,97.90
2019-02-21T11:49:29.877Z,97.30
2019-02-21T11:52:09.657Z,97.10
2019-02-21T11:54:30.770Z,97.80
2019-02-21T11:57:00.317Z,97.60
2019-02-21T11:59:29.933Z,98.00
2019-02-21T12:01:59.510Z,97.60
2019-02-21T12:04:29.145Z,97.90
2019-02-21T12:06:58.828Z,98.10
2019-02-21T12:09:28.467Z,98.20
2019-02-21T12:11:58.082Z,97.80
2019-02-21T12:14:27.659Z,98.80
2019-02-21T12:16:57.281Z,97.90
2019-02-21T12:19:26.863Z,98.30
2019-02-21T12:21:59.331Z,98.00
2019-02-21T12:24:27.700Z,97.30
2019-02-21T12:26:57.296Z,97.70
2019-02-21T12:29:26.933Z,98.40
2019-02-21T12:31:56.529Z,97.60
2019-02-21T12:34:26.157Z,97.30
2019-02-21T12:36:55.864Z,97.40
2019-02-21T12:39:25.540Z,97.80
2019-02-21T12:41:55.164Z,97.90
2019-02-21T12:44:25.145Z,98.20
2019-02-21T12:46:54.740Z,98.60
2019-02-21T12:49:24.357Z,98.50
2019-02-21T12:51:53.986Z,98.40
2019-02-21T12:54:24.776Z,98.40
2019-02-21T12:56:54.495Z,98.20
2019-02-21T12:59:24.139Z,99.00
2019-02-21T13:01:54.059Z,99.30
2019-02-21T13:04:23.667Z,98.50
2019-02-21T13:06:53.313Z,99.00
2019-02-21T13:09:22.965Z,99.70
2019-02-21T13:11:52.540Z,99.90
2019-02-21T13:14:22.125Z,99.90
2019-02-21T13:16:51.697Z,99.90
2019-02-21T13:19:21.302Z,99.90
2019-02-21T13:21:50.990Z,99.90
2019-02-21T13:24:20.637Z,99.90
2019-02-21T13:26:50.230Z,99.90
2019-02-21T13:29:19.901Z,99.90
2019-02-21T13:31:49.532Z,99.90
2019-02-21T13:34:19.081Z,99.90
2019-02-21T13:36:48.759Z,99.90
2019-02-21T13:39:18.431Z,99.90
2019-02-21T13:41:47.953Z,99.90
2019-02-21T13:44:17.561Z,99.90
2019-02-21T13:46:47.120Z,99.90
2019-02-21T13:49:16.720Z,99.90
2019-02-21T13:51:46.357Z,99.90
2019-02-21T13:54:15.927Z,99.90
2019-02-21T13:56:45.494Z,99.90
2019-02-21T13:59:15.194Z,99.90
2019-02-21T14:01:44.767Z,99.90
2019-02-21T14:04:14.353Z,99.90
2019-02-21T14:06:43.979Z,99.90
2019-02-21T14:09:13.620Z,99.90
2019-02-21T14:11:43.253Z,99.90
2019-02-21T14:14:12.864Z,99.90
2019-02-21T14:16:46.475Z,99.90
2019-02-21T14:19:13.683Z,99.90
2019-02-21T14:21:43.845Z,99.90
2019-02-21T14:24:13.514Z,99.90
2019-02-21T14:26:43.234Z,99.90
2019-02-21T14:29:12.990Z,99.90
2019-02-21T14:31:42.582Z,99.90
2019-02-21T14:34:12.207Z,99.90
2019-02-21T14:36:41.836Z,99.90
2019-02-21T14:39:11.546Z,99.90
2019-02-21T14:41:43.773Z,99.90
2019-02-21T14:44:12.437Z,99.90
2019-02-21T14:46:42.014Z,99.90
2019-02-21T14:49:11.632Z,99.90
2019-02-21T14:51:41.266Z,99.90
2019-02-21T14:54:10.848Z,99.90
2019-02-21T14:56:40.416Z,99.90
2019-02-21T14:59:10.040Z,99.90
2019-02-21T15:01:39.597Z,99.90
2019-02-21T15:04:09.217Z,99.90
2019-02-21T15:06:38.810Z,99.90
2019-02-21T15:09:08.750Z,99.90
2019-02-21T15:11:38.377Z,99.90
2019-02-21T15:14:08.093Z,99.90
2019-02-21T15:16:37.774Z,99.90
2019-02-21T15:19:07.407Z,99.90
2019-02-21T15:21:37.097Z,99.90
2019-02-21T15:24:06.716Z,99.90
2019-02-21T15:26:36.362Z,99.90
2019-02-21T15:29:06.090Z,99.90
2019-02-21T15:31:35.781Z,99.90
2019-02-21T15:34:05.435Z,99.90
2019-02-21T15:36:38.275Z,99.90
2019-02-21T15:39:08.761Z,99.90
2019-02-21T15:41:41.303Z,99.90
2019-02-21T15:44:11.091Z,99.90
2019-02-21T15:46:41.973Z,99.90
2019-02-21T15:49:12.066Z,99.90
2019-02-21T15:51:43.706Z,99.90
2019-02-21T15:54:13.341Z,99.90
2019-02-21T15:56:43.321Z,99.90
2019-02-21T15:59:13.796Z,99.90
2019-02-21T16:01:47.885Z,99.90
2019-02-21T16:04:15.061Z,99.90
2019-02-21T16:06:51.010Z,99.90
2019-02-21T16:09:16.737Z,99.90
2019-02-21T16:11:46.552Z,99.90
2019-02-21T16:14:16.257Z,99.90
2019-02-21T16:16:45.923Z,99.90
2019-02-21T16:19:15.581Z,99.90
2019-02-21T16:21:45.267Z,99.90
2019-02-21T16:24:14.997Z,99.90
2019-02-21T16:26:44.732Z,99.90
2019-02-21T16:29:14.390Z,99.90
2019-02-21T16:31:44.098Z,99.90
2019-02-21T16:34:13.758Z,99.90
2019-02-21T16:36:43.478Z,99.90
2019-02-21T16:39:13.207Z,99.90
2019-02-21T16:41:44.383Z,99.90
2019-02-21T16:44:14.142Z,99.90
2019-02-21T16:46:43.842Z,99.90
2019-02-21T16:49:13.554Z,99.90
2019-02-21T16:51:43.230Z,99.90
2019-02-21T16:54:12.857Z,99.90
2019-02-21T16:56:42.587Z,99.90
2019-02-21T16:59:12.336Z,99.90
2019-02-21T17:01:42.044Z,99.90
2019-02-21T17:04:11.710Z,99.90
2019-02-21T17:06:41.413Z,99.90
2019-02-21T17:09:11.730Z,99.90
2019-02-21T17:11:41.399Z,99.90
2019-02-21T17:14:11.071Z,99.90
2019-02-21T17:16:40.847Z,99.90
2019-02-21T17:19:10.581Z,99.90
2019-02-21T17:21:40.293Z,99.90
2019-02-21T17:24:09.982Z,99.90
2019-02-21T17:26:39.988Z,99.90
2019-02-21T17:29:09.665Z,99.90
2019-02-21T17:31:39.423Z,99.90
2019-02-21T17:34:09.085Z,99.90
2019-02-21T17:36:41.360Z,99.90
2019-02-21T17:39:11.016Z,99.90
2019-02-21T17:41:40.694Z,99.90
2019-02-21T17:44:10.341Z,99.70
2019-02-21T17:46:40.027Z,98.50
2019-02-21T17:49:09.824Z,97.60
2019-02-21T17:51:39.464Z,98.40
2019-02-21T17:54:09.188Z,99.10
2019-02-21T17:56:38.891Z,99.50
2019-02-21T17:59:08.555Z,99.90
2019-02-21T18:01:38.215Z,99.90
2019-02-21T18:04:07.940Z,99.90
2019-02-21T18:06:37.626Z,99.90
2019-02-21T18:09:09.738Z,99.90
2019-02-21T18:11:39.350Z,99.90
2019-02-21T18:14:09.051Z,99.90
2019-02-21T18:16:40.608Z,99.90
2019-02-21T18:19:13.003Z,99.90
2019-02-21T18:21:42.918Z,99.90
2019-02-21T18:24:13.018Z,99.90
2019-02-21T18:26:42.994Z,99.90
2019-02-21T18:29:27.309Z,99.90
2019-02-21T18:31:57.273Z,99.90
2019-02-21T18:34:29.551Z,99.90
2019-02-21T18:37:05.653Z,99.90
2019-02-21T18:39:39.470Z,99.90
2019-02-21T18:42:09.137Z,99.90
2019-02-21T18:44:38.754Z,99.90
2019-02-21T18:47:08.443Z,99.90
2019-02-21T18:49:38.226Z,99.90
2019-02-21T18:52:07.973Z,99.90
2019-02-21T18:54:37.796Z,99.90
2019-02-21T18:57:41.389Z,99.90
2019-02-21T19:00:21.108Z,99.90
2019-02-21T19:02:51.000Z,99.90
2019-02-21T19:05:35.985Z,99.90
2019-02-21T19:08:05.317Z,99.90
2019-02-21T19:10:38.966Z,99.90
2019-02-21T19:13:14.157Z,99.90
2019-02-21T19:15:47.319Z,99.90
2019-02-21T19:18:17.194Z,99.90
2019-02-21T19:20:48.175Z,99.90
2019-02-21T19:23:17.881Z,99.90
2019-02-21T19:25:47.768Z,99.90
2019-02-21T19:28:17.498Z,99.90
2019-02-21T19:30:54.146Z,99.90
2019-02-21T19:33:24.063Z,99.90
2019-02-21T19:35:53.845Z,99.90
2019-02-21T19:38:23.611Z,99.90
2019-02-21T19:40:53.331Z,99.90
2019-02-21T19:43:23.026Z,99.90
2019-02-21T19:45:52.919Z,99.90
2019-02-21T19:48:22.880Z,99.90
2019-02-21T19:50:52.793Z,99.90
2019-02-21T19:53:25.510Z,99.90
2019-02-21T19:56:01.620Z,99.90
2019-02-21T19:58:27.491Z,99.90
2019-02-21T20:00:57.416Z,99.90
2019-02-21T20:03:27.280Z,99.90
2019-02-21T20:05:58.627Z,99.90
2019-02-21T20:08:28.338Z,99.90
2019-02-21T20:11:04.066Z,99.90
2019-02-21T20:13:35.499Z,99.90
2019-02-21T20:16:05.358Z,99.90
2019-02-21T20:18:35.107Z,99.90
2019-02-21T20:21:04.999Z,99.90
2019-02-21T20:23:34.760Z,99.90
2019-02-21T20:26:04.528Z,99.90
2019-02-21T20:28:34.248Z,99.90
2019-02-21T20:31:04.152Z,99.90
2019-02-21T20:33:33.928Z,99.90
2019-02-21T20:36:03.759Z,99.90
2019-02-21T20:38:33.483Z,99.90
2019-02-21T20:41:03.186Z,99.90
2019-02-21T20:43:33.171Z,99.90
2019-02-21T20:46:02.916Z,99.90
2019-02-21T20:48:32.654Z,99.90
2019-02-21T20:51:02.429Z,99.90
2019-02-21T20:53:32.179Z,99.90
2019-02-21T20:56:02.146Z,99.90
2019-02-21T20:58:31.935Z,99.90
2019-02-21T21:01:01.785Z,99.90
2019-02-21T21:03:31.552Z,99.90
2019-02-21T21:06:01.463Z,99.90
2019-02-21T21:08:31.224Z,99.90
2019-02-21T21:11:00.962Z,99.90
2019-02-21T21:13:30.746Z,99.90
2019-02-21T21:16:00.614Z,99.90
2019-02-21T21:18:30.387Z,99.90
2019-02-21T21:21:00.338Z,99.90
2019-02-21T21:23:30.081Z,99.90
2019-02-21T21:25:59.800Z,99.90
2019-02-21T21:28:29.923Z,99.90
2019-02-21T21:30:59.858Z,99.90
2019-02-21T21:33:29.716Z,99.90
2019-02-21T21:36:02.060Z,99.90
2019-02-21T21:38:31.868Z,99.90
2019-02-21T21:41:01.600Z,99.90
2019-02-21T21:43:31.379Z,99.90
2019-02-21T21:46:01.118Z,99.90
2019-02-21T21:48:30.785Z,99.90
2019-02-21T21:51:00.510Z,99.90
2019-02-21T21:53:30.220Z,99.90
2019-02-21T21:56:01.145Z,99.90
2019-02-21T21:58:30.831Z,99.90
2019-02-21T22:01:00.531Z,99.90
2019-02-21T22:03:30.318Z,99.90
2019-02-21T22:06:00.019Z,99.90
2019-02-21T22:08:29.729Z,99.90
2019-02-21T22:10:59.470Z,99.90
2019-02-21T22:13:29.164Z,99.90
2019-02-21T22:15:58.902Z,99.90
2019-02-21T22:18:28.608Z,99.90
2019-02-21T22:20:58.324Z,99.90
2019-02-21T22:23:27.957Z,99.90
2019-02-21T22:25:57.714Z,99.90
2019-02-21T22:28:27.425Z,99.90
2019-02-21T22:30:58.161Z,99.90
2019-02-21T22:33:28.055Z,99.90
2019-02-21T22:35:59.508Z,99.90
2019-02-21T22:38:29.081Z,99.90
2019-02-21T22:40:58.785Z,99.90
2019-02-21T22:43:28.559Z,99.90
2019-02-21T22:45:58.212Z,99.90
2019-02-21T22:48:27.794Z,99.90
2019-02-21T22:50:57.532Z,99.90
2019-02-21T22:53:27.263Z,99.90
2019-02-21T22:55:56.958Z,99.90
2019-02-21T22:58:26.790Z,99.90
2019-02-21T23:01:29.799Z,99.90
2019-02-21T23:04:29.031Z,99.90
2019-02-21T23:07:37.841Z,99.90
2019-02-21T23:10:07.857Z,99.90
2019-02-21T23:12:37.561Z,99.90
2019-02-21T23:15:08.361Z,99.90
2019-02-21T23:17:38.147Z,99.90
2019-02-21T23:20:09.108Z,99.90
2019-02-21T23:22:38.733Z,99.90
2019-02-21T23:25:09.462Z,99.90
2019-02-21T23:27:39.103Z,99.90
2019-02-21T23:30:11.826Z,99.90
2019-02-21T23:32:41.611Z,99.90
2019-02-21T23:35:16.777Z,99.90
2019-02-21T23:37:48.346Z,99.90
2019-02-21T23:40:17.972Z,99.90
2019-02-21T23:42:47.599Z,99.90
2019-02-21T23:45:17.237Z,99.90
2019-02-21T23:47:49.803Z,99.90
2019-02-21T23:50:18.088Z,99.90
2019-02-21T23:52:47.717Z,99.90
2019-02-21T23:55:17.476Z,99.90
2019-02-21T23:57:47.093Z,99.90
